Weather observations for the past three days for
Summerville Airport
Imperial (Metric)
Date Time (edt) Wind (mph) Vis. (mi.) Weather Sky Cond. Temperature (ºF) Relative Humidity Wind Chill (°F) Heat Index (°F) Pressure Precipitation (in)
Air Dwpt 6 hour altimeter (in) sea level (mb) 1 hr 3 hr 6 hr
Max. Min.
03 03:15 Calm 10.00 Fair CLR 75.2 75.2 100% 73 30 0.0
03 02:55 Calm 10.00 Fair CLR 75.2 73.4 94% 74 30 0.0
03 02:35 Calm 10.00 Fair CLR 73.4 73.4 100% 30 0.0
03 02:15 Calm 10.00 Fair CLR 75.2 73.4 94% 74 30 0.0
03 01:55 Calm 10.00 Fair CLR 75.2 73.4 94% 74 30 0.0
03 01:35 Calm 10.00 Fair CLR 75.2 73.4 94% 74 30.01 0.0
03 01:15 Calm 10.00 Fair CLR 75.2 73.4 94% 74 30.01 0.0
03 00:55 Calm 10.00 Fair CLR 75.2 73.4 94% 74 30.01 0.0
03 00:35 Calm 10.00 Fair CLR 75.2 73.4 94% 74 30.02 0.0
03 00:15 Calm 10.00 Fair CLR 75.2 73.4 94% 74 30.03 0.0
02 23:55 Calm 10.00 Fair CLR 77 73.4 89% 78 30.03 0.0
02 23:35 Calm 10.00 Fair CLR 77 73.4 89% 78 30.03 0.0
02 23:15 Calm 10.00 Fair CLR 77 73.4 89% 78 30.04 0.0
02 22:55 Calm 10.00 Fair CLR 77 73.4 89% 78 30.05 0.0
02 22:35 Calm 10.00 Fair CLR 77 73.4 89% 78 30.05 0.0
02 22:15 Calm 10.00 Fair CLR 78.8 73.4 84% 82 30.05 0.0
02 21:55 Calm 10.00 Fair CLR 78.8 73.4 84% 82 30.04 0.0
02 21:35 Calm 10.00 Fair CLR 78.8 73.4 84% 82 30.04 0.0
02 21:15 Calm 10.00 Fair CLR 80.6 73.4 79% 85 30.03 0.0
02 20:55 Calm 10.00 Fair CLR 80.6 71.6 74% 85 30.02 0.0
02 20:35 Calm 10.00 Fair CLR 80.6 73.4 79% 85 30.02 0.0
02 20:15 Calm 10.00 Fair CLR 84.2 71.6 66% 90 30.01 0.0
02 19:55 Calm 10.00 Fair CLR 86 71.6 62% 92 30.01 0.0
02 19:35 Calm 10.00 Fair CLR 87.8 71.6 59% 94 30.01 0.0
02 19:15 Calm 10.00 Fair CLR 89.6 71.6 55% 96 30 0.0
02 18:55 Calm 10.00 Fair CLR 89.6 73.4 59% 98 30 0.0
02 18:35 Calm 10.00 Fair CLR 91.4 75.2 59% 103 30 0.0
02 18:15 Calm 10.00 A Few Clouds FEW055 FEW070 91.4 75.2 59% 103 30 0.0
02 17:55 Calm 10.00 Partly Cloudy FEW050 FEW060 SCT075 93.2 73.4 53% 103 30 0.0
02 17:35 Calm 10.00 Overcast SCT050 BKN065 OVC080 89.6 75.2 63% 100 30.01 0.0
02 17:15 Calm 10.00 Overcast SCT055 BKN065 OVC075 93.2 73.4 53% 103 30 0.0
02 16:55 Calm 10.00 Mostly Cloudy BKN050 BKN070 93.2 71.6 50% 101 30 0.0
02 16:35 Calm 10.00 Partly Cloudy SCT050 SCT070 95 71.6 47% 103 30.01 0.0
02 16:15 Calm 10.00 Partly Cloudy FEW050 SCT060 SCT075 95 71.6 47% 103 30.01 0.0
02 15:55 Calm 10.00 Mostly Cloudy SCT050 BKN060 93.2 73.4 53% 103 30.01 0.0
02 15:35 Calm 10.00 A Few Clouds FEW060 95 71.6 47% 103 30.02 0.0
02 15:15 Calm 10.00 A Few Clouds FEW050 93.2 71.6 50% 101 30.03 0.0
02 14:55 Calm 7.00 Partly Cloudy SCT050 93.2 73.4 53% 103 30.03 0.0
02 14:35 Calm 10.00 Fair CLR 93.2 71.6 50% 101 30.04 0.0
02 14:15 Calm 10.00 A Few Clouds FEW049 91.4 71.6 52% 99 30.04 0.0
02 13:55 Calm 10.00 Fair CLR 91.4 73.4 56% 100 30.04 0.0
02 13:35 Calm 10.00 Fair CLR 91.4 71.6 52% 99 30.05 0.0
02 13:15 Calm 10.00 A Few Clouds FEW045 91.4 71.6 52% 99 30.05 0.0
02 12:55 Calm 10.00 A Few Clouds FEW044 91.4 73.4 56% 100 30.06 0.0
02 12:35 Calm 10.00 Fair CLR 89.6 71.6 55% 96 30.06 0.0
02 12:15 Calm 10.00 Fair CLR 89.6 71.6 55% 96 30.07 0.0
02 11:55 Calm 10.00 Fair CLR 89.6 71.6 55% 96 30.07 0.0
02 11:35 Calm 10.00 Fair CLR 89.6 71.6 55% 96 30.07 0.0
02 11:15 Calm 10.00 Fair CLR 87.8 71.6 59% 94 30.07 0.0
02 10:55 Calm 10.00 Fair CLR 86 71.6 62% 92 30.07 0.0
02 10:35 Calm 10.00 Fair CLR 86 75.2 70% 95 30.08 0.0
02 10:15 Calm 10.00 Fair CLR 84.2 73.4 70% 91 30.08 0.0
02 09:55 Calm 10.00 Fair CLR 84.2 75.2 74% 92 30.07 0.0
02 09:35 Calm 10.00 Fair CLR 82.4 77 84% 91 30.07 0.0
02 09:15 Calm 10.00 Fair CLR 80.6 77 89% 87 30.08 0.0
02 08:55 Calm 10.00 Fair CLR 78.8 77 94% 83 30.08 0.0
02 08:35 Calm 9.00 Fair CLR 78.8 77 94% 83 30.08 0.0
02 08:15 Calm 10.00 Fair CLR 77 75.2 94% 78 30.08 0.0
02 07:55 Calm 10.00 Fair CLR 75.2 75.2 100% 73 30.08 0.0
02 07:35 Calm 10.00 Fair CLR 73.4 73.4 100% 30.07 0.0
02 07:15 Calm 10.00 Fair CLR 73.4 73.4 100% 30.07 0.0
02 06:55 Calm 10.00 A Few Clouds FEW048 73.4 73.4 100% 30.06 0.0
02 06:35 Calm 10.00 Mostly Cloudy FEW002 BKN050 73.4 73.4 100% 30.06 0.0
02 06:15 Calm 10.00 Partly Cloudy SCT050 73.4 73.4 100% 30.06 0.0
02 05:55 Calm 10.00 Fair CLR 73.4 73.4 100% 30.06 0.0
02 05:35 Calm 10.00 Fair CLR 73.4 73.4 100% 30.05 0.0
02 05:15 Calm 10.00 A Few Clouds FEW050 73.4 73.4 100% 30.05 0.0
02 04:55 Calm 10.00 Mostly Cloudy BKN050 73.4 73.4 100% 30.05 0.0
02 04:35 Calm 10.00 Partly Cloudy SCT047 SCT055 73.4 73.4 100% 30.05 0.0
02 04:15 Calm 10.00 A Few Clouds FEW050 FEW055 73.4 73.4 100% 30.05 0.0
02 03:55 Calm 10.00 Fair CLR 75.2 73.4 94% 74 30.05 0.0
02 03:35 Calm 10.00 Fair CLR 75.2 73.4 94% 74 30.04 0.0
02 03:15 Calm 10.00 Fair CLR 75.2 73.4 94% 74 30.04 0.0
02 02:55 Calm 10.00 Fair CLR 75.2 73.4 94% 74 30.04 0.0
02 02:35 Calm 10.00 Fair CLR 75.2 75.2 100% 73 30.04 0.0
02 02:15 Calm 10.00 Fair CLR 75.2 75.2 100% 73 30.04 0.0
02 01:55 Calm 10.00 Fair CLR 75.2 75.2 100% 73 30.04 0.0
02 01:35 Calm 10.00 Fair CLR 75.2 75.2 100% 73 30.04 0.0
02 01:15 Calm 10.00 Fair CLR 75.2 75.2 100% 73 30.05 0.0
02 00:55 Calm 10.00 Fair CLR 75.2 75.2 100% 73 30.05 0.0
02 00:35 Calm 10.00 Fair CLR 77 75.2 94% 78 30.05 0.0
02 00:15 Calm 10.00 Fair CLR 77 75.2 94% 78 30.04 0.0
01 23:55 Calm 10.00 Fair CLR 77 75.2 94% 78 30.05 0.0
01 23:35 Calm 10.00 Fair CLR 77 75.2 94% 78 30.04 0.0
01 23:15 Calm 10.00 Fair CLR 77 75.2 94% 78 30.05 0.0
01 22:55 Calm 10.00 Fair CLR 78.8 75.2 89% 82 30.05 0.0
01 22:35 Calm 10.00 Fair CLR 78.8 75.2 89% 82 30.05 0.0
01 22:15 Calm 10.00 Fair CLR 78.8 75.2 89% 82 30.05 0.0
01 21:55 Calm 10.00 Fair CLR 78.8 73.4 84% 82 30.05 0.0
01 21:35 Calm 10.00 Fair CLR 78.8 73.4 84% 82 30.04 0.0
01 21:15 Calm 10.00 Fair CLR 80.6 73.4 79% 85 30.03 0.0
01 20:55 Calm 10.00 Fair CLR 80.6 73.4 79% 85 30.03 0.0
01 20:35 Calm 10.00 Fair CLR 82.4 73.4 74% 88 30.02 0.0
01 20:15 Calm 10.00 Fair CLR 84.2 73.4 70% 91 30.02 0.0
01 19:55 Calm 10.00 Fair CLR 84.2 73.4 70% 91 30.02 0.0
01 19:35 Calm 10.00 Fair CLR 86 73.4 66% 93 30.02 0.0
01 19:15 Calm 10.00 Fair CLR 87.8 75.2 66% 98 30.02 0.0
01 18:55 Calm 10.00 Fair CLR 89.6 75.2 63% 100 30.02 0.0
01 18:35 Calm 10.00 Fair CLR 91.4 75.2 59% 103 30.01 0.0
01 18:15 Calm 10.00 Fair CLR 93.2 73.4 53% 103 30.01 0.0
01 17:55 Calm 10.00 Fair CLR 93.2 71.6 50% 101 30.01 0.0
01 17:35 Calm 10.00 Fair CLR 93.2 71.6 50% 101 30.01 0.0
01 17:15 Calm 10.00 Fair CLR 93.2 71.6 50% 101 30.01 0.0
01 16:55 Calm 10.00 Fair CLR 93.2 71.6 50% 101 30.01 0.0
01 16:35 Calm 10.00 Fair CLR 93.2 71.6 50% 101 30.02 0.0
01 16:15 Calm 10.00 Fair CLR 93.2 71.6 50% 101 30.02 0.0
01 15:55 Calm 10.00 Fair CLR 91.4 69.8 49% 97 30.02 0.0
01 15:35 Calm 10.00 Fair CLR 91.4 69.8 49% 97 30.03 0.0
01 15:15 Calm 10.00 Fair CLR 91.4 68 46% 96 30.04 0.0
01 14:55 Calm 10.00 Fair CLR 93.2 68 44% 98 30.04 0.0
01 14:35 Calm 10.00 Fair CLR 91.4 71.6 52% 99 30.05 0.0
01 14:15 Calm 10.00 A Few Clouds FEW045 91.4 69.8 49% 97 30.06 0.0
01 13:55 Calm 10.00 Partly Cloudy SCT043 91.4 73.4 56% 100 30.06 0.0
01 13:35 Calm 10.00 Partly Cloudy SCT041 89.6 73.4 59% 98 30.06 0.0
01 13:15 Calm 10.00 A Few Clouds FEW040 FEW047 89.6 73.4 59% 98 30.07 0.0
01 12:55 Calm 10.00 A Few Clouds FEW037 89.6 73.4 59% 98 30.07 0.0
01 12:35 Calm 10.00 Partly Cloudy FEW034 SCT040 89.6 73.4 59% 98 30.08 0.0
01 12:15 Calm 10.00 A Few Clouds FEW033 87.8 75.2 66% 98 30.09 0.0
01 11:55 Calm 10.00 Mostly Cloudy BKN031 87.8 75.2 66% 98 30.09 0.0
01 11:35 Calm 10.00 Partly Cloudy SCT030 86 75.2 70% 95 30.09 0.0
01 11:15 Calm 10.00 Fair CLR 86 73.4 66% 93 30.09 0.0
01 10:55 Calm 10.00 Fair CLR 86 75.2 70% 95 30.1 0.0
01 10:35 Calm 10.00 Fair CLR 84.2 73.4 70% 91 30.09 0.0
01 10:15 Calm 10.00 Fair CLR 84.2 73.4 70% 91 30.09 0.0
01 09:55 Calm 10.00 Fair CLR 82.4 75.2 79% 89 30.09 0.0
01 09:35 Calm 10.00 Fair CLR 80.6 77 89% 87 30.09 0.0
01 09:15 Calm 10.00 Fair CLR 80.6 77 89% 87 30.1 0.0
01 08:55 Calm 10.00 Fair CLR 78.8 77 94% 83 30.1 0.0
01 08:35 Calm 9.00 Fair CLR 77 77 100% 78 30.09 0.0
01 08:15 Calm 8.00 Fair CLR 77 75.2 94% 78 30.09 0.0
01 07:55 Calm 6.00 Fog/Mist CLR 75.2 75.2 100% 73 30.08 0.0
01 07:35 Calm 1.75 Fog/Mist SCT002 73.4 73.4 100% 30.07 0.0
01 07:15 Calm 6.00 Fog/Mist BKN002 73.4 73.4 100% 30.06 0.0
01 06:55 Calm 3.00 Fog/Mist OVC002 73.4 73.4 100% 30.06 0.0
01 06:35 Calm 5.00 Fog/Mist OVC002 73.4 73.4 100% 30.05 0.0
01 06:15 Calm 7.00 Overcast OVC002 73.4 73.4 100% 30.06 0.0
01 05:55 Calm 8.00 Mostly Cloudy BKN002 73.4 73.4 100% 30.05 0.0
01 05:35 Calm 8.00 Overcast OVC002 73.4 73.4 100% 30.05 0.0
01 05:15 Calm 7.00 Mostly Cloudy BKN002 73.4 73.4 100% 30.05 0.0
01 04:55 Calm 7.00 Mostly Cloudy BKN002 73.4 73.4 100% 30.05 0.0
01 04:35 Calm 7.00 Mostly Cloudy BKN002 73.4 73.4 100% 30.05 0.0
01 04:15 Calm 7.00 Overcast OVC002 73.4 73.4 100% 30.05 0.0
01 03:55 Calm 4.00 Fog/Mist SCT002 75.2 75.2 100% 73 30.05 0.0
01 03:35 Calm 1.25 Fog/Mist SCT002 73.4 73.4 100% 30.05 0.0
01 03:15 Calm 5.00 Fog/Mist CLR 73.4 73.4 100% 30.05 0.0
01 02:55 Calm 9.00 Fair CLR 75.2 75.2 100% 73 30.06 0.0
01 02:35 Calm 8.00 Fair CLR 75.2 75.2 100% 73 30.06 0.0
01 02:15 Calm 9.00 Fair CLR 75.2 75.2 100% 73 30.07 0.0
01 01:55 Calm 9.00 Fair CLR 75.2 75.2 100% 73 30.07 0.0
01 01:35 Calm 9.00 Fair CLR 75.2 75.2 100% 73 30.08 0.0
01 01:15 Calm 10.00 Fair CLR 77 75.2 94% 78 30.08 0.0
01 00:55 Calm 9.00 Fair CLR 77 75.2 94% 78 30.08 0.0
01 00:35 Calm 9.00 Fair CLR 77 75.2 94% 78 30.07 0.0
01 00:15 Calm 10.00 Fair CLR 77 75.2 94% 78 30.08 0.0
31 23:55 Calm 10.00 Fair CLR 77 75.2 94% 78 30.08 0.0
31 23:35 Calm 10.00 Fair CLR 77 75.2 94% 78 30.08 0.0
31 23:15 Calm 10.00 Fair CLR 77 75.2 94% 78 30.08 0.0
31 22:55 Calm 10.00 Fair CLR 77 75.2 94% 78 30.08 0.0
31 22:35 Calm 10.00 Fair CLR 78.8 75.2 89% 82 30.08 0.0
31 22:15 Calm 10.00 Fair CLR 80.6 77 89% 87 30.08 0.0
31 21:55 Calm 10.00 Fair CLR 80.6 75.2 84% 86 30.07 0.0
31 21:35 Calm 10.00 Fair CLR 80.6 77 89% 87 30.07 0.0
31 21:15 Calm 10.00 A Few Clouds FEW100 80.6 77 89% 87 30.06 0.0
31 20:55 Calm 10.00 Overcast OVC100 82.4 77 84% 91 30.06 0.0
31 20:35 Calm 10.00 Mostly Cloudy BKN110 82.4 77 84% 91 30.05 0.0
31 20:15 Calm 10.00 Mostly Cloudy BKN100 82.4 77 84% 91 30.05 0.0
31 19:35 Calm 10.00 Fair CLR 86 75.2 70% 95 30.04 0.0
31 19:15 Calm 10.00 Fair CLR 87.8 75.2 66% 98 30.04 0.0
31 18:55 Calm 10.00 Fair CLR 89.6 73.4 59% 98 30.04 0.0
31 18:35 Calm 10.00 Fair CLR 89.6 73.4 59% 98 30.04 0.0
31 18:15 Calm 10.00 Fair CLR 89.6 73.4 59% 98 30.04 0.0
31 17:55 Calm 10.00 A Few Clouds FEW037 89.6 73.4 59% 98 30.04 0.0
31 17:35 Calm 10.00 Fair CLR 89.6 73.4 59% 98 30.04 0.0
31 17:15 Calm 10.00 Fair CLR 89.6 73.4 59% 98 30.03 0.0
31 16:55 Calm 10.00 Fair CLR 89.6 71.6 55% 96 30.04 0.0
31 16:35 Calm 10.00 Fair CLR 89.6 71.6 55% 96 30.04 0.0
31 16:15 Calm 10.00 Fair CLR 89.6 73.4 59% 98 30.04 0.0
31 15:55 Calm 10.00 Fair CLR 87.8 71.6 59% 94 30.05 0.0
31 15:35 Calm 10.00 A Few Clouds FEW030 87.8 73.4 62% 96 30.05 0.0
31 15:15 Calm 10.00 A Few Clouds FEW035 87.8 75.2 66% 98 30.06 0.0
31 14:55 Calm 10.00 A Few Clouds FEW034 87.8 73.4 62% 96 30.07 0.0
31 14:35 Calm 10.00 Fair CLR 87.8 73.4 62% 96 30.07 0.0
31 14:15 Calm 10.00 Fair CLR 87.8 73.4 62% 96 30.08 0.0
31 13:55 Calm 10.00 Fair CLR 89.6 73.4 59% 98 30.09 0.0
31 13:35 Calm 10.00 Partly Cloudy SCT065 89.6 71.6 55% 96 30.1 0.0
31 13:15 Calm 10.00 Mostly Cloudy FEW035 SCT048 BKN065 87.8 71.6 59% 94 30.11 0.0
31 12:55 Calm 10.00 Partly Cloudy SCT035 SCT041 SCT070 87.8 71.6 59% 94 30.12 0.0
31 12:35 Calm 10.00 Mostly Cloudy SCT035 SCT040 BKN070 86 73.4 66% 93 30.12 0.0
31 12:15 Calm 10.00 Partly Cloudy SCT026 86 73.4 66% 93 30.12 0.0
31 11:55 Calm 10.00 A Few Clouds FEW027 86 75.2 70% 95 30.12 0.0
31 11:35 Calm 10.00 Partly Cloudy SCT024 86 75.2 70% 95 30.12 0.0
31 11:15 Calm 10.00 Partly Cloudy SCT023 84.2 75.2 74% 92 30.11 0.0
31 10:55 Calm 10.00 Fair CLR 84.2 75.2 74% 92 30.12 0.0
31 10:35 Calm 10.00 Fair CLR 82.4 75.2 79% 89 30.11 0.0
31 10:15 Calm 10.00 Fair CLR 82.4 75.2 79% 89 30.11 0.0
31 09:55 Calm 10.00 A Few Clouds FEW015 80.6 75.2 84% 86 30.11 0.0
31 09:35 Calm 10.00 Fair CLR 80.6 75.2 84% 86 30.11 0.0
31 09:15 Calm 10.00 A Few Clouds FEW006 78.8 75.2 89% 82 30.11 0.0
31 08:55 Calm 10.00 Partly Cloudy SCT004 77 75.2 94% 78 30.1 0.0
31 08:35 Calm 10.00 Mostly Cloudy BKN004 BKN009 75.2 75.2 100% 73 30.1 0.0
31 08:15 Calm 9.00 Overcast BKN003 OVC009 75.2 75.2 100% 73 30.1 0.0
31 07:55 Calm 2.00 Fog/Mist OVC003 75.2 75.2 100% 73 30.09 0.0
31 07:35 Calm 0.15 Fog OVC002 75.2 75.2 100% 73 30.09 0.0
31 06:35 Calm 0.50 Fog/Mist OVC002 73.4 73.4 100% 30.08 0.0
31 06:15 Calm 9.00 Overcast OVC002 73.4 73.4 100% 30.08 0.0
31 05:55 Calm 8.00 Mostly Cloudy BKN002 73.4 73.4 100% 30.07 0.0
31 05:35 Calm 9.00 Partly Cloudy SCT003 73.4 73.4 100% 30.07 0.0
31 05:15 Calm 10.00 Mostly Cloudy BKN003 73.4 73.4 100% 30.07 0.0
31 04:55 Calm 8.00 Mostly Cloudy BKN003 73.4 73.4 100% 30.07 0.0
31 04:35 Calm 9.00 Mostly Cloudy BKN003 73.4 73.4 100% 30.07 0.0
31 04:15 Calm 8.00 A Few Clouds FEW003 75.2 75.2 100% 73 30.07 0.0
31 03:55 Calm 9.00 Fair CLR 75.2 75.2 100% 73 30.07 0.0
Date Time (edt) Wind (mph) Vis. (mi.) Weather Sky Cond. Air Dwpt Max. Min. Relative Humidity Wind Chill (°F) Heat Index (°F) altimeter (in) sea level (mb) 1 hr 3 hr 6 hr
6 hour
Temperature (ºF) Pressure Precipitation (in)